createdAt,value
2019-03-10T00:01:51.577Z,7.63
2019-03-10T00:04:18.881Z,7.68
2019-03-10T00:06:46.200Z,7.27
2019-03-10T00:09:13.534Z,7.69
2019-03-10T00:11:40.881Z,7.51
2019-03-10T00:14:08.155Z,7.46
2019-03-10T00:16:35.499Z,7.77
2019-03-10T00:19:02.812Z,7.63
2019-03-10T00:21:30.124Z,7.58
2019-03-10T00:23:57.540Z,7.56
2019-03-10T00:26:25.190Z,7.52
2019-03-10T00:28:52.481Z,7.50
2019-03-10T00:31:19.910Z,7.59
2019-03-10T00:33:47.219Z,7.26
2019-03-10T00:36:14.588Z,7.51
2019-03-10T00:39:04.656Z,7.41
2019-03-10T00:42:22.219Z,7.65
2019-03-10T00:45:36.332Z,7.73
2019-03-10T00:49:00.491Z,7.61
2019-03-10T00:51:55.597Z,7.61
2019-03-10T00:54:22.962Z,7.70
2019-03-10T00:56:50.343Z,7.50
2019-03-10T00:59:18.693Z,7.39
2019-03-10T01:01:46.081Z,7.31
2019-03-10T01:04:15.457Z,7.17
2019-03-10T01:06:42.874Z,7.33
2019-03-10T01:09:10.281Z,7.27
2019-03-10T01:11:37.802Z,7.31
2019-03-10T01:14:05.159Z,7.05
2019-03-10T01:16:32.665Z,7.07
2019-03-10T01:19:00.142Z,7.15
2019-03-10T01:21:27.405Z,7.19
2019-03-10T01:23:54.717Z,7.26
2019-03-10T01:26:22.001Z,7.43
2019-03-10T01:28:49.293Z,7.19
2019-03-10T01:31:27.121Z,7.27
2019-03-10T01:34:12.440Z,7.27
2019-03-10T01:36:39.865Z,7.31
2019-03-10T01:39:09.251Z,7.27
2019-03-10T01:41:36.571Z,7.18
2019-03-10T01:44:03.882Z,7.12
2019-03-10T01:46:31.227Z,6.97
2019-03-10T01:48:58.561Z,6.40
2019-03-10T01:51:25.841Z,6.20
2019-03-10T01:53:53.152Z,6.16
2019-03-10T01:56:20.535Z,6.02
2019-03-10T01:58:47.802Z,6.10
2019-03-10T02:01:15.121Z,6.18
2019-03-10T02:03:42.441Z,5.94
2019-03-10T02:06:09.723Z,5.68
2019-03-10T02:08:37.010Z,6.01
2019-03-10T02:11:04.521Z,6.10
2019-03-10T02:13:31.853Z,5.86
2019-03-10T02:15:59.121Z,5.84
2019-03-10T02:18:26.437Z,5.97
2019-03-10T02:20:53.795Z,6.02
2019-03-10T02:23:21.163Z,5.94
2019-03-10T02:25:48.482Z,5.60
2019-03-10T02:28:15.761Z,5.62
2019-03-10T02:30:43.135Z,5.48
2019-03-10T02:33:10.572Z,5.57
2019-03-10T02:35:37.846Z,5.67
2019-03-10T02:38:05.170Z,5.75
2019-03-10T02:40:32.481Z,5.87
2019-03-10T02:42:59.832Z,5.61
2019-03-10T02:45:27.178Z,5.49
2019-03-10T02:47:54.561Z,5.55
2019-03-10T02:50:21.961Z,5.88
2019-03-10T02:52:49.281Z,5.87
2019-03-10T02:55:16.727Z,5.78
2019-03-10T02:57:44.019Z,5.76
2019-03-10T03:00:12.856Z,5.71
2019-03-10T03:02:40.201Z,5.63
2019-03-10T03:05:08.654Z,5.67
2019-03-10T03:07:35.931Z,5.64
2019-03-10T03:10:03.550Z,5.41
2019-03-10T03:12:30.909Z,5.30
2019-03-10T03:14:58.231Z,5.35
2019-03-10T03:17:25.572Z,5.32
2019-03-10T03:19:53.283Z,5.39
2019-03-10T03:22:20.572Z,5.16
2019-03-10T03:24:47.885Z,4.94
2019-03-10T03:27:15.213Z,5.18
2019-03-10T03:29:42.507Z,5.34
2019-03-10T03:32:09.845Z,5.34
2019-03-10T03:34:37.105Z,5.46
2019-03-10T03:37:05.538Z,5.23
2019-03-10T03:39:36.434Z,5.42
2019-03-10T03:42:03.763Z,5.43
2019-03-10T03:44:31.102Z,5.17
2019-03-10T03:46:58.402Z,5.31
2019-03-10T03:49:25.724Z,5.26
2019-03-10T03:51:53.012Z,5.18
2019-03-10T03:54:20.397Z,5.20
2019-03-10T03:56:47.724Z,5.16
2019-03-10T03:59:15.517Z,5.26
2019-03-10T04:01:46.946Z,5.37
2019-03-10T04:04:14.286Z,5.29
2019-03-10T04:06:41.732Z,5.18
2019-03-10T04:09:09.171Z,4.91
2019-03-10T04:11:36.518Z,5.05
2019-03-10T04:14:03.962Z,4.99
2019-03-10T04:16:31.411Z,5.06
2019-03-10T04:18:58.765Z,4.96
2019-03-10T04:21:26.122Z,4.84
2019-03-10T04:23:53.542Z,5.13
2019-03-10T04:26:20.881Z,4.84
2019-03-10T04:28:48.270Z,5.13
2019-03-10T04:31:15.728Z,5.08
2019-03-10T04:33:43.073Z,4.96
2019-03-10T04:36:10.441Z,4.95
2019-03-10T04:38:37.817Z,5.25
2019-03-10T04:41:05.258Z,4.90
2019-03-10T04:43:32.691Z,4.96
2019-03-10T04:46:00.002Z,4.76
2019-03-10T04:48:27.332Z,5.03
2019-03-10T04:50:54.746Z,5.00
2019-03-10T04:53:22.045Z,4.60
2019-03-10T04:56:24.000Z,4.76
2019-03-10T04:58:56.057Z,4.53
2019-03-10T05:01:24.961Z,4.78
2019-03-10T05:03:52.251Z,4.70
2019-03-10T05:06:19.608Z,4.68
2019-03-10T05:08:46.921Z,4.66
2019-03-10T05:11:14.211Z,4.71
2019-03-10T05:13:41.841Z,4.77
2019-03-10T05:16:09.165Z,4.96
2019-03-10T05:18:36.441Z,4.72
2019-03-10T05:21:03.731Z,4.76
2019-03-10T05:23:36.812Z,4.64
2019-03-10T05:26:04.292Z,5.10
2019-03-10T05:28:32.411Z,4.89
2019-03-10T05:30:59.812Z,4.76
2019-03-10T05:33:27.095Z,4.82
2019-03-10T05:35:54.468Z,4.94
2019-03-10T05:38:21.757Z,4.86
2019-03-10T05:40:49.146Z,4.60
2019-03-10T05:43:16.516Z,4.51
2019-03-10T05:45:43.851Z,4.74
2019-03-10T05:48:11.141Z,4.78
2019-03-10T05:50:38.474Z,4.46
2019-03-10T05:53:05.785Z,4.50
2019-03-10T05:55:33.081Z,4.73
2019-03-10T05:58:00.421Z,4.71
2019-03-10T06:00:27.733Z,4.65
2019-03-10T06:02:55.041Z,4.77
2019-03-10T06:05:22.356Z,4.48
2019-03-10T06:07:51.675Z,4.86
2019-03-10T06:10:19.062Z,4.69
2019-03-10T06:12:46.673Z,4.67
2019-03-10T06:15:14.014Z,4.59
2019-03-10T06:17:41.313Z,4.70
2019-03-10T06:20:10.812Z,4.96
2019-03-10T06:22:38.131Z,4.91
2019-03-10T06:25:05.534Z,4.99
2019-03-10T06:27:32.802Z,4.87
2019-03-10T06:30:00.336Z,4.86
2019-03-10T06:32:27.662Z,4.97
2019-03-10T06:34:54.971Z,5.10
2019-03-10T06:37:22.295Z,4.78
2019-03-10T06:39:49.571Z,4.98
2019-03-10T06:42:16.972Z,5.13
2019-03-10T06:44:44.291Z,5.12
2019-03-10T06:47:11.641Z,5.00
2019-03-10T06:49:38.971Z,5.00
2019-03-10T06:52:06.371Z,5.20
2019-03-10T06:54:33.721Z,5.28
2019-03-10T06:57:00.982Z,5.39
2019-03-10T06:59:28.309Z,5.41
2019-03-10T07:01:55.611Z,5.40
2019-03-10T07:04:22.932Z,5.33
2019-03-10T07:06:50.252Z,5.42
2019-03-10T07:09:17.557Z,5.57
2019-03-10T07:11:44.851Z,6.17
2019-03-10T07:14:12.176Z,6.22
2019-03-10T07:16:39.441Z,6.40
2019-03-10T07:19:06.761Z,6.48
2019-03-10T07:21:34.065Z,6.64
2019-03-10T07:24:01.391Z,6.85
2019-03-10T07:26:28.691Z,6.83
2019-03-10T07:29:03.818Z,7.10
2019-03-10T07:31:38.860Z,7.14
2019-03-10T07:34:25.091Z,6.33
2019-03-10T07:37:11.161Z,5.90
2019-03-10T07:40:00.869Z,6.04
2019-03-10T07:42:50.510Z,5.76
2019-03-10T07:45:40.949Z,5.81
2019-03-10T07:48:24.897Z,5.78
2019-03-10T07:51:02.119Z,6.16
2019-03-10T07:53:37.337Z,6.25
2019-03-10T07:56:15.402Z,6.67
2019-03-10T07:59:17.191Z,6.88
2019-03-10T08:02:03.902Z,7.11
2019-03-10T08:04:59.582Z,7.45
2019-03-10T08:07:46.407Z,7.51
2019-03-10T08:10:22.052Z,7.63
2019-03-10T08:13:04.377Z,7.69
2019-03-10T08:15:55.053Z,7.79
2019-03-10T08:18:45.052Z,7.97
2019-03-10T08:21:21.321Z,8.12
2019-03-10T08:24:08.218Z,8.22
2019-03-10T08:26:55.051Z,8.20
2019-03-10T08:29:46.051Z,8.38
2019-03-10T08:32:44.766Z,8.25
2019-03-10T08:35:22.331Z,8.54
2019-03-10T08:38:01.986Z,8.64
2019-03-10T08:40:41.172Z,8.73
2019-03-10T08:43:30.131Z,8.99
2019-03-10T08:46:12.277Z,9.20
2019-03-10T08:48:48.687Z,9.19
2019-03-10T08:51:36.998Z,9.34
2019-03-10T08:54:26.873Z,9.43
2019-03-10T08:57:12.204Z,9.44
2019-03-10T09:00:14.213Z,9.57
2019-03-10T09:02:59.830Z,9.82
2019-03-10T09:05:42.807Z,9.69
2019-03-10T09:08:20.481Z,9.88
2019-03-10T09:10:59.962Z,9.98
2019-03-10T09:13:43.061Z,9.88
2019-03-10T09:16:18.641Z,10.16
2019-03-10T09:19:11.597Z,10.29
2019-03-10T09:21:54.023Z,10.35
2019-03-10T09:24:39.594Z,10.65
2019-03-10T09:27:25.222Z,10.78
2019-03-10T09:30:14.948Z,10.79
2019-03-10T09:33:04.445Z,10.85
2019-03-10T09:35:46.285Z,11.09
2019-03-10T09:38:45.359Z,10.99
2019-03-10T09:41:31.030Z,11.19
2019-03-10T09:44:10.678Z,11.25
2019-03-10T09:46:49.663Z,11.21
2019-03-10T09:49:36.579Z,11.32
2019-03-10T09:52:26.289Z,11.32
2019-03-10T09:55:17.045Z,11.41
2019-03-10T09:58:10.307Z,11.39
2019-03-10T10:00:58.083Z,11.48
2019-03-10T10:03:39.916Z,11.54
2019-03-10T10:06:32.593Z,11.63
2019-03-10T10:09:11.709Z,11.59
2019-03-10T10:11:49.021Z,11.69
2019-03-10T10:14:50.680Z,11.81
2019-03-10T10:17:31.152Z,11.76
2019-03-10T10:20:17.097Z,12.01
2019-03-10T10:23:07.821Z,11.74
2019-03-10T10:25:41.618Z,11.77
2019-03-10T10:28:14.610Z,11.85
2019-03-10T10:31:04.364Z,11.70
2019-03-10T10:33:50.045Z,11.96
2019-03-10T10:36:37.077Z,11.82
2019-03-10T10:39:44.346Z,11.92
2019-03-10T10:42:22.089Z,11.87
2019-03-10T10:45:15.194Z,12.14
2019-03-10T10:48:05.094Z,12.22
2019-03-10T10:50:58.226Z,12.21
2019-03-10T10:53:43.743Z,12.45
2019-03-10T10:56:30.974Z,12.50
2019-03-10T10:59:13.431Z,12.41
2019-03-10T11:02:00.671Z,12.57
2019-03-10T11:05:02.937Z,12.56
2019-03-10T11:07:51.076Z,12.59
2019-03-10T11:10:53.408Z,12.60
2019-03-10T11:13:39.023Z,12.45
2019-03-10T11:16:21.278Z,12.38
2019-03-10T11:19:08.854Z,12.43
2019-03-10T11:21:47.128Z,12.32
2019-03-10T11:24:22.332Z,12.48
2019-03-10T11:27:05.773Z,12.30
2019-03-10T11:30:00.417Z,12.37
2019-03-10T11:33:02.537Z,12.34
2019-03-10T11:35:53.571Z,12.18
2019-03-10T11:38:39.626Z,12.09
2019-03-10T11:41:33.769Z,12.18
2019-03-10T11:44:16.791Z,12.14
2019-03-10T11:47:07.097Z,12.31
2019-03-10T11:49:44.055Z,12.54
2019-03-10T11:52:37.469Z,12.77
2019-03-10T11:55:11.676Z,13.06
2019-03-10T11:57:58.785Z,13.23
2019-03-10T12:00:51.946Z,13.16
2019-03-10T12:03:27.295Z,13.33
2019-03-10T12:06:14.531Z,13.47
2019-03-10T12:09:01.563Z,13.38
2019-03-10T12:11:29.190Z,13.53
2019-03-10T12:13:56.733Z,13.51
2019-03-10T12:16:24.568Z,13.48
2019-03-10T12:18:54.204Z,13.60
2019-03-10T12:21:21.849Z,13.64
2019-03-10T12:23:49.604Z,13.86
2019-03-10T12:26:17.260Z,13.89
2019-03-10T12:28:44.851Z,14.10
2019-03-10T12:31:12.533Z,13.90
2019-03-10T12:33:40.197Z,14.09
2019-03-10T12:36:08.403Z,14.18
2019-03-10T12:38:36.606Z,14.36
2019-03-10T12:41:04.688Z,14.36
2019-03-10T12:43:32.433Z,14.22
2019-03-10T12:46:00.107Z,14.24
2019-03-10T12:48:27.973Z,14.52
2019-03-10T12:50:57.344Z,14.60
2019-03-10T12:53:25.326Z,14.49
2019-03-10T12:55:53.163Z,14.57
2019-03-10T12:58:20.811Z,14.83
2019-03-10T13:00:48.628Z,14.97
2019-03-10T13:03:16.482Z,14.92
2019-03-10T13:05:44.331Z,14.73
2019-03-10T13:08:12.199Z,15.27
2019-03-10T13:10:39.907Z,15.04
2019-03-10T13:13:07.689Z,15.09
2019-03-10T13:15:35.501Z,15.04
2019-03-10T13:18:03.403Z,14.92
2019-03-10T13:20:31.246Z,14.87
2019-03-10T13:22:59.699Z,14.86
2019-03-10T13:25:27.546Z,15.05
2019-03-10T13:27:55.230Z,15.26
2019-03-10T13:30:24.461Z,15.03
2019-03-10T13:32:52.437Z,14.91
2019-03-10T13:35:21.864Z,14.86
2019-03-10T13:37:49.512Z,14.82
2019-03-10T13:40:20.011Z,14.58
2019-03-10T13:42:48.296Z,14.42
2019-03-10T13:45:16.084Z,14.40
2019-03-10T13:47:44.059Z,14.37
2019-03-10T13:50:14.147Z,14.55
2019-03-10T13:52:42.164Z,14.96
2019-03-10T13:55:10.583Z,15.58
2019-03-10T13:57:38.653Z,16.28
2019-03-10T14:00:10.663Z,16.23
2019-03-10T14:02:40.921Z,16.06
2019-03-10T14:05:09.409Z,16.14
2019-03-10T14:07:37.049Z,16.51
2019-03-10T14:10:04.956Z,16.84
2019-03-10T14:12:32.724Z,16.80
2019-03-10T14:15:00.688Z,16.88
2019-03-10T14:17:28.463Z,16.91
2019-03-10T14:19:56.148Z,16.86
2019-03-10T14:22:24.127Z,16.85
2019-03-10T14:24:51.865Z,16.79
2019-03-10T14:27:20.622Z,17.03
2019-03-10T14:29:48.745Z,17.11
2019-03-10T14:32:18.087Z,16.99
2019-03-10T14:34:46.736Z,17.25
2019-03-10T14:37:14.558Z,17.38
2019-03-10T14:39:42.309Z,17.58
2019-03-10T14:42:12.747Z,17.21
2019-03-10T14:44:40.575Z,17.54
2019-03-10T14:47:08.295Z,17.47
2019-03-10T14:49:36.098Z,17.84
2019-03-10T14:52:04.096Z,17.75
2019-03-10T14:54:32.305Z,17.61
2019-03-10T14:57:02.626Z,17.24
2019-03-10T14:59:29.840Z,17.58
2019-03-10T15:02:00.112Z,17.43
2019-03-10T15:04:27.212Z,17.61
2019-03-10T15:06:55.025Z,17.72
2019-03-10T15:09:23.148Z,18.21
2019-03-10T15:11:52.147Z,17.87
2019-03-10T15:14:20.054Z,17.50
2019-03-10T15:16:48.104Z,17.44
2019-03-10T15:19:15.865Z,17.57
2019-03-10T15:21:43.556Z,17.78
2019-03-10T15:24:11.337Z,17.90
2019-03-10T15:26:45.606Z,17.65
2019-03-10T15:29:09.022Z,17.44
2019-03-10T15:31:36.762Z,17.73
2019-03-10T15:34:06.056Z,17.83
2019-03-10T15:36:33.883Z,17.46
2019-03-10T15:39:03.216Z,17.77
2019-03-10T15:41:30.861Z,17.28
2019-03-10T15:43:59.692Z,17.64
2019-03-10T15:46:27.440Z,17.83
2019-03-10T15:48:55.347Z,17.30
2019-03-10T15:51:23.030Z,17.36
2019-03-10T15:53:50.864Z,17.10
2019-03-10T15:56:18.841Z,16.91
2019-03-10T15:58:46.509Z,16.79
2019-03-10T16:01:16.437Z,16.60
2019-03-10T16:03:44.396Z,16.53
2019-03-10T16:06:12.264Z,16.62
2019-03-10T16:08:40.217Z,16.44
2019-03-10T16:11:10.417Z,16.44
2019-03-10T16:13:39.382Z,16.27
2019-03-10T16:16:07.996Z,16.32
2019-03-10T16:18:36.135Z,16.20
2019-03-10T16:21:04.010Z,16.07
2019-03-10T16:23:31.651Z,16.43
2019-03-10T16:25:59.305Z,16.29
2019-03-10T16:28:27.411Z,16.12
2019-03-10T16:30:55.214Z,16.05
2019-03-10T16:33:25.317Z,16.05
2019-03-10T16:35:52.973Z,16.01
2019-03-10T16:38:21.229Z,16.11
2019-03-10T16:40:49.309Z,15.95
2019-03-10T16:43:17.097Z,15.97
2019-03-10T16:45:44.924Z,15.98
2019-03-10T16:48:12.606Z,15.91
2019-03-10T16:50:41.577Z,15.83
2019-03-10T16:53:09.468Z,15.05
2019-03-10T16:55:37.365Z,15.15
2019-03-10T16:58:05.187Z,14.80
2019-03-10T17:00:33.307Z,14.66
2019-03-10T17:03:03.204Z,14.67
2019-03-10T17:05:31.058Z,14.41
2019-03-10T17:07:58.958Z,14.28
2019-03-10T17:10:26.796Z,14.18
2019-03-10T17:12:55.013Z,13.73
2019-03-10T17:15:23.854Z,13.71
2019-03-10T17:17:54.234Z,13.69
2019-03-10T17:20:22.092Z,13.54
2019-03-10T17:22:50.379Z,13.64
2019-03-10T17:25:18.272Z,12.94
2019-03-10T17:27:46.054Z,13.00
2019-03-10T17:30:18.585Z,13.16
2019-03-10T17:32:46.751Z,13.02
2019-03-10T17:35:15.922Z,12.99
2019-03-10T17:37:48.309Z,13.03
2019-03-10T17:40:16.639Z,13.53
2019-03-10T17:42:44.662Z,12.75
2019-03-10T17:45:15.060Z,13.20
2019-03-10T17:47:43.012Z,13.40
2019-03-10T17:50:11.632Z,13.25
2019-03-10T17:52:39.629Z,13.03
2019-03-10T17:55:07.549Z,12.49
2019-03-10T17:57:35.213Z,12.05
2019-03-10T18:00:03.437Z,11.45
2019-03-10T18:02:31.510Z,11.31
2019-03-10T18:04:59.417Z,10.96
2019-03-10T18:07:28.931Z,11.25
2019-03-10T18:09:56.820Z,11.00
2019-03-10T18:12:24.839Z,11.11
2019-03-10T18:14:55.523Z,10.94
2019-03-10T18:17:23.471Z,12.28
2019-03-10T18:19:51.359Z,12.27
2019-03-10T18:22:19.394Z,12.37
2019-03-10T18:24:47.211Z,12.00
2019-03-10T18:27:15.614Z,12.04
2019-03-10T18:29:43.644Z,11.99
2019-03-10T18:32:11.598Z,12.28
2019-03-10T18:34:39.915Z,12.29
2019-03-10T18:37:09.297Z,12.27
2019-03-10T18:39:37.404Z,12.14
2019-03-10T18:42:05.410Z,12.06
2019-03-10T18:44:36.048Z,12.03
2019-03-10T18:47:04.331Z,11.86
2019-03-10T18:49:33.287Z,11.79
2019-03-10T18:52:01.241Z,11.58
2019-03-10T18:54:29.108Z,11.50
2019-03-10T18:56:57.089Z,11.60
2019-03-10T18:59:24.808Z,11.46
2019-03-10T19:01:53.293Z,11.39
2019-03-10T19:04:21.658Z,11.38
2019-03-10T19:06:49.926Z,11.08
2019-03-10T19:09:17.827Z,10.27
2019-03-10T19:11:46.731Z,10.44
2019-03-10T19:14:14.550Z,10.47
2019-03-10T19:16:42.440Z,10.18
2019-03-10T19:19:12.573Z,10.32
2019-03-10T19:21:40.586Z,10.28
2019-03-10T19:24:08.450Z,10.06
2019-03-10T19:26:37.980Z,9.96
2019-03-10T19:29:05.949Z,10.12
2019-03-10T19:31:33.694Z,10.26
2019-03-10T19:34:01.613Z,10.23
2019-03-10T19:36:29.295Z,10.13
2019-03-10T19:38:57.187Z,10.10
2019-03-10T19:41:27.873Z,10.19
2019-03-10T19:43:55.692Z,10.10
2019-03-10T19:46:24.478Z,10.15
2019-03-10T19:48:52.365Z,9.85
2019-03-10T19:51:20.460Z,9.70
2019-03-10T19:53:48.336Z,9.60
2019-03-10T19:56:16.576Z,9.57
2019-03-10T19:58:45.113Z,9.76
2019-03-10T20:01:13.447Z,9.90
2019-03-10T20:03:42.250Z,9.83
2019-03-10T20:06:09.986Z,9.70
2019-03-10T20:08:37.676Z,9.38
2019-03-10T20:11:05.515Z,9.31
2019-03-10T20:13:33.792Z,9.25
2019-03-10T20:16:01.576Z,9.34
2019-03-10T20:18:30.189Z,9.20
2019-03-10T20:20:58.233Z,9.09
2019-03-10T20:23:26.006Z,8.97
2019-03-10T20:25:53.975Z,9.03
2019-03-10T20:28:21.667Z,9.11
2019-03-10T20:30:50.948Z,8.98
2019-03-10T20:33:19.822Z,9.01
2019-03-10T20:35:47.543Z,8.98
2019-03-10T20:38:15.801Z,8.87
2019-03-10T20:40:43.513Z,8.70
2019-03-10T20:43:12.227Z,8.67
2019-03-10T20:45:39.908Z,8.77
2019-03-10T20:48:07.675Z,8.86
2019-03-10T20:50:35.363Z,8.75
2019-03-10T20:53:03.056Z,8.72
2019-03-10T20:55:31.025Z,8.52
2019-03-10T20:57:58.702Z,8.75
2019-03-10T21:00:26.450Z,8.87
2019-03-10T21:02:54.340Z,8.50
2019-03-10T21:05:22.036Z,8.42
2019-03-10T21:07:49.883Z,8.43
2019-03-10T21:10:17.676Z,8.09
2019-03-10T21:12:45.400Z,8.27
2019-03-10T21:15:15.030Z,7.88
2019-03-10T21:17:42.924Z,7.91
2019-03-10T21:20:12.173Z,7.98
2019-03-10T21:22:39.785Z,7.87
2019-03-10T21:25:10.177Z,7.73
2019-03-10T21:27:38.561Z,7.48
2019-03-10T21:30:10.677Z,7.70
2019-03-10T21:32:38.289Z,7.24
2019-03-10T21:35:16.843Z,7.50
2019-03-10T21:37:36.664Z,7.38
2019-03-10T21:40:04.650Z,7.65
2019-03-10T21:42:32.218Z,7.64
2019-03-10T21:44:59.841Z,7.59
2019-03-10T21:47:27.623Z,7.54
2019-03-10T21:49:55.200Z,7.60
2019-03-10T21:52:22.878Z,7.44
2019-03-10T21:54:50.413Z,7.39
2019-03-10T21:57:18.322Z,7.25
2019-03-10T21:59:45.747Z,7.31
2019-03-10T22:02:13.153Z,7.48
2019-03-10T22:04:40.567Z,7.52
2019-03-10T22:07:07.916Z,7.83
2019-03-10T22:09:35.262Z,8.10
2019-03-10T22:12:02.616Z,8.04
2019-03-10T22:14:29.918Z,7.82
2019-03-10T22:16:57.274Z,8.17
2019-03-10T22:19:24.621Z,8.11
2019-03-10T22:21:51.973Z,8.07
2019-03-10T22:24:19.292Z,8.12
2019-03-10T22:26:46.648Z,7.97
2019-03-10T22:29:14.011Z,8.04
2019-03-10T22:31:41.338Z,7.89
2019-03-10T22:34:08.683Z,7.84
2019-03-10T22:36:36.037Z,7.65
2019-03-10T22:39:05.332Z,7.55
2019-03-10T22:41:32.703Z,7.88
2019-03-10T22:44:00.058Z,8.32
2019-03-10T22:46:27.433Z,7.99
2019-03-10T22:48:54.740Z,8.15
2019-03-10T22:51:22.086Z,7.98
2019-03-10T22:53:49.449Z,8.12
2019-03-10T22:56:17.255Z,8.08
2019-03-10T22:58:44.654Z,8.24
2019-03-10T23:01:12.211Z,8.26
2019-03-10T23:03:39.636Z,7.86
2019-03-10T23:06:06.989Z,7.75
2019-03-10T23:08:34.321Z,7.86
2019-03-10T23:11:01.651Z,7.65
2019-03-10T23:13:29.022Z,7.58
2019-03-10T23:15:56.331Z,7.77
2019-03-10T23:18:24.011Z,7.57
2019-03-10T23:20:51.329Z,7.37
2019-03-10T23:23:18.640Z,7.58
2019-03-10T23:25:46.012Z,7.57
2019-03-10T23:28:13.441Z,7.62
2019-03-10T23:30:40.771Z,7.24
2019-03-10T23:33:08.161Z,7.32
2019-03-10T23:35:35.481Z,7.07
2019-03-10T23:38:02.811Z,7.20
2019-03-10T23:40:30.331Z,7.24
2019-03-10T23:42:57.691Z,7.18
2019-03-10T23:45:25.041Z,7.26
2019-03-10T23:47:52.401Z,7.29
2019-03-10T23:50:19.897Z,7.20
2019-03-10T23:52:47.344Z,7.49
2019-03-10T23:55:14.686Z,7.18
2019-03-10T23:57:42.131Z,6.98
